createdAt,value
2023-02-11T00:00:26.192Z,-1.70
2023-02-11T00:02:29.701Z,-1.70
2023-02-11T00:04:31.759Z,-1.80
2023-02-11T00:06:34.752Z,-1.80
2023-02-11T00:08:36.788Z,-1.80
2023-02-11T00:10:38.486Z,-1.80
2023-02-11T00:12:40.167Z,-1.80
2023-02-11T00:14:41.838Z,-1.90
2023-02-11T00:16:43.503Z,-1.90
2023-02-11T00:18:45.527Z,-1.80
2023-02-11T00:20:47.252Z,-1.90
2023-02-11T00:22:48.885Z,-1.90
2023-02-11T00:24:50.619Z,-1.90
2023-02-11T00:26:52.259Z,-1.90
2023-02-11T00:28:54.248Z,-1.90
2023-02-11T00:30:58.929Z,-2.00
2023-02-11T00:33:00.684Z,-2.00
2023-02-11T00:35:02.290Z,-2.00
2023-02-11T00:37:04.407Z,-2.00
2023-02-11T00:39:07.065Z,-2.00
2023-02-11T00:41:08.707Z,-2.00
2023-02-11T00:43:10.387Z,-2.10
2023-02-11T00:45:12.151Z,-2.00
2023-02-11T00:47:14.031Z,-2.00
2023-02-11T00:49:15.914Z,-2.10
2023-02-11T00:51:17.576Z,-2.20
2023-02-11T00:53:19.193Z,-2.20
2023-02-11T00:55:20.968Z,-2.10
2023-02-11T00:57:22.673Z,-2.20
2023-02-11T00:59:24.430Z,-2.20
2023-02-11T01:01:26.134Z,-2.20
2023-02-11T01:03:27.805Z,-2.20
2023-02-11T01:05:29.818Z,-2.20
2023-02-11T01:07:31.532Z,-2.20
2023-02-11T01:09:33.259Z,-2.20
2023-02-11T01:11:34.901Z,-2.20
2023-02-11T01:13:37.372Z,-2.20
2023-02-11T01:15:39.041Z,-2.20
2023-02-11T01:17:40.765Z,-2.30
2023-02-11T01:19:42.413Z,-2.30
2023-02-11T01:21:44.006Z,-2.30
2023-02-11T01:23:45.613Z,-2.30
2023-02-11T01:25:47.726Z,-2.30
2023-02-11T01:27:49.456Z,-2.30
2023-02-11T01:29:51.122Z,-2.30
2023-02-11T01:31:52.890Z,-2.40
2023-02-11T01:33:54.589Z,-2.40
2023-02-11T01:35:59.766Z,-2.40
2023-02-11T01:38:01.435Z,-2.40
2023-02-11T01:40:04.826Z,-2.40
2023-02-11T01:42:06.723Z,-2.40
2023-02-11T01:44:23.556Z,-2.40
2023-02-11T01:46:31.021Z,-2.50
2023-02-11T01:48:36.036Z,-2.40
2023-02-11T01:50:39.797Z,-2.50
2023-02-11T01:52:42.615Z,-2.50
2023-02-11T01:55:04.741Z,-2.50
2023-02-11T01:57:25.325Z,-2.50
2023-02-11T01:59:30.359Z,-2.40
2023-02-11T02:01:33.607Z,-2.40
2023-02-11T02:03:37.828Z,-2.50
2023-02-11T02:05:39.541Z,-2.50
2023-02-11T02:07:59.242Z,-2.50
2023-02-11T02:10:04.768Z,-2.50
2023-02-11T02:12:06.579Z,-2.50
2023-02-11T02:14:08.194Z,-2.50
2023-02-11T02:16:14.258Z,-2.50
2023-02-11T02:18:31.171Z,-2.40
2023-02-11T02:20:32.868Z,-2.40
2023-02-11T02:23:01.526Z,-2.40
2023-02-11T02:25:06.124Z,-2.40
2023-02-11T02:27:34.017Z,-2.40
2023-02-11T02:29:41.570Z,-2.40
2023-02-11T02:32:02.162Z,-2.40
2023-02-11T02:34:08.430Z,-2.40
2023-02-11T02:36:18.907Z,-2.40
2023-02-11T02:38:28.077Z,-2.30
2023-02-11T02:40:32.973Z,-2.40
2023-02-11T02:42:35.351Z,-2.40
2023-02-11T02:44:37.018Z,-2.40
2023-02-11T02:46:38.727Z,-2.30
2023-02-11T02:48:40.438Z,-2.30
2023-02-11T02:50:42.108Z,-2.30
2023-02-11T02:53:03.265Z,-2.20
2023-02-11T02:55:14.193Z,-2.30
2023-02-11T02:57:18.882Z,-2.30
2023-02-11T02:59:20.481Z,-2.30
2023-02-11T03:01:29.640Z,-2.30
2023-02-11T03:03:43.906Z,-2.20
2023-02-11T03:05:45.648Z,-2.20
2023-02-11T03:08:08.344Z,-2.30
2023-02-11T03:10:28.125Z,-2.20
2023-02-11T03:12:32.254Z,-2.20
2023-02-11T03:14:35.773Z,-2.20
2023-02-11T03:16:39.229Z,-2.10
2023-02-11T03:18:42.284Z,-2.10
2023-02-11T03:20:45.256Z,-2.20
2023-02-11T03:22:50.789Z,-2.20
2023-02-11T03:24:52.912Z,-2.20
2023-02-11T03:26:56.369Z,-2.20
2023-02-11T03:28:57.984Z,-2.20
2023-02-11T03:30:59.689Z,-2.10
2023-02-11T03:33:05.539Z,-1.90
2023-02-11T03:35:28.964Z,-1.80
2023-02-11T03:37:33.805Z,-1.70
2023-02-11T03:39:38.038Z,-1.60
2023-02-11T03:41:40.977Z,-1.70
2023-02-11T03:43:44.991Z,-1.90
2023-02-11T03:45:48.535Z,-1.90
2023-02-11T03:48:08.925Z,-1.90
2023-02-11T03:50:11.959Z,-1.90
2023-02-11T03:52:14.232Z,-1.90
2023-02-11T03:54:18.652Z,-1.80
2023-02-11T03:56:22.112Z,-1.80
2023-02-11T03:58:23.768Z,-1.70
2023-02-11T04:00:32.319Z,-1.60
2023-02-11T04:02:35.485Z,-1.60
2023-02-11T04:04:37.636Z,-1.60
2023-02-11T04:06:39.390Z,-1.60
2023-02-11T04:08:41.039Z,-1.50
2023-02-11T04:10:42.648Z,-1.50
2023-02-11T04:12:44.289Z,-1.50
2023-02-11T04:14:46.005Z,-1.50
2023-02-11T04:16:47.642Z,-1.50
2023-02-11T04:18:49.328Z,-1.50
2023-02-11T04:20:51.044Z,-1.50
2023-02-11T04:22:52.642Z,-1.50
2023-02-11T04:24:54.332Z,-1.50
2023-02-11T04:26:56.050Z,-1.40
2023-02-11T04:28:57.697Z,-1.30
2023-02-11T04:30:59.385Z,-1.30
2023-02-11T04:33:01.098Z,-1.20
2023-02-11T04:35:03.551Z,-1.20
2023-02-11T04:37:05.245Z,-1.10
2023-02-11T04:39:07.038Z,-1.10
2023-02-11T04:41:08.729Z,-1.00
2023-02-11T04:43:10.374Z,-1.00
2023-02-11T04:45:11.997Z,-1.00
2023-02-11T04:47:15.319Z,-0.90
2023-02-11T04:49:17.575Z,-0.90
2023-02-11T04:51:19.231Z,-0.90
2023-02-11T04:53:20.869Z,-0.90
2023-02-11T04:55:22.675Z,-0.90
2023-02-11T04:57:24.332Z,-0.90
2023-02-11T04:59:25.969Z,-0.80
2023-02-11T05:01:27.772Z,-0.80
2023-02-11T05:03:30.093Z,-0.80
2023-02-11T05:05:31.726Z,-0.70
2023-02-11T05:07:33.381Z,-0.70
2023-02-11T05:09:35.036Z,-0.70
2023-02-11T05:11:36.820Z,-0.80
2023-02-11T05:13:38.542Z,-0.70
2023-02-11T05:15:40.264Z,-0.70
2023-02-11T05:17:41.884Z,-0.60
2023-02-11T05:19:43.546Z,-0.60
2023-02-11T05:22:00.275Z,-0.70
2023-02-11T05:24:03.823Z,-0.50
2023-02-11T05:26:05.760Z,-0.50
2023-02-11T05:28:07.563Z,-0.50
2023-02-11T05:30:09.731Z,-0.50
2023-02-11T05:32:12.165Z,-0.50
2023-02-11T05:34:13.768Z,-0.50
2023-02-11T05:36:16.781Z,-0.40
2023-02-11T05:38:18.500Z,-0.40
2023-02-11T05:40:20.156Z,-0.60
2023-02-11T05:42:21.810Z,-0.50
2023-02-11T05:44:23.440Z,-0.40
2023-02-11T05:46:25.193Z,-0.50
2023-02-11T05:48:26.869Z,-0.50
2023-02-11T05:50:28.483Z,-0.40
2023-02-11T05:52:30.172Z,-0.40
2023-02-11T05:54:31.851Z,-0.30
2023-02-11T05:56:33.594Z,-0.30
2023-02-11T05:58:35.369Z,-0.20
2023-02-11T06:00:37.208Z,-0.30
2023-02-11T06:02:38.955Z,-0.40
2023-02-11T06:04:41.450Z,-0.40
2023-02-11T06:06:43.205Z,-0.30
2023-02-11T06:08:44.901Z,-0.30
2023-02-11T06:10:46.597Z,-0.30
2023-02-11T06:12:48.266Z,-0.40
2023-02-11T06:14:49.905Z,-0.30
2023-02-11T06:16:51.515Z,-0.40
2023-02-11T06:18:53.201Z,-0.30
2023-02-11T06:20:55.147Z,-0.20
2023-02-11T06:22:56.880Z,-0.30
2023-02-11T06:25:01.806Z,-0.30
2023-02-11T06:27:04.581Z,-0.30
2023-02-11T06:29:06.294Z,-0.20
2023-02-11T06:31:08.219Z,-0.30
2023-02-11T06:33:10.011Z,-0.30
2023-02-11T06:35:12.571Z,-0.30
2023-02-11T06:37:14.504Z,-0.30
2023-02-11T06:39:16.145Z,-0.20
2023-02-11T06:41:20.215Z,-0.30
2023-02-11T06:43:21.816Z,-0.40
2023-02-11T06:45:23.524Z,-0.30
2023-02-11T06:47:25.394Z,-0.10
2023-02-11T06:49:27.109Z,0.10
2023-02-11T06:51:28.764Z,0.10
2023-02-11T06:53:30.912Z,0.00
2023-02-11T06:55:34.627Z,-0.10
2023-02-11T06:57:36.277Z,-0.10
2023-02-11T06:59:37.983Z,-0.10
2023-02-11T07:01:39.725Z,-0.10
2023-02-11T07:03:43.171Z,0.00
2023-02-11T07:05:44.909Z,0.00
2023-02-11T07:07:46.748Z,-0.10
2023-02-11T07:09:48.404Z,-0.10
2023-02-11T07:11:50.008Z,0.00
2023-02-11T07:13:52.487Z,0.00
2023-02-11T07:15:54.086Z,-0.10
2023-02-11T07:17:55.748Z,0.00
2023-02-11T07:19:58.363Z,0.00
2023-02-11T07:22:00.046Z,0.20
2023-02-11T07:24:01.927Z,0.30
2023-02-11T07:26:04.530Z,0.30
2023-02-11T07:28:06.296Z,0.30
2023-02-11T07:30:08.337Z,0.30
2023-02-11T07:32:10.105Z,0.30
2023-02-11T07:34:11.854Z,0.30
2023-02-11T07:36:14.342Z,0.30
2023-02-11T07:38:16.009Z,0.40
2023-02-11T07:40:17.766Z,0.30
2023-02-11T07:42:19.395Z,0.40
2023-02-11T07:44:21.067Z,0.40
2023-02-11T07:46:24.159Z,0.40
2023-02-11T07:48:25.876Z,0.40
2023-02-11T07:50:27.548Z,0.50
2023-02-11T07:52:30.071Z,0.60
2023-02-11T07:54:31.807Z,0.70
2023-02-11T07:56:33.556Z,0.80
2023-02-11T07:58:35.285Z,0.80
2023-02-11T08:00:37.047Z,0.90
2023-02-11T08:02:38.737Z,0.90
2023-02-11T08:04:40.550Z,0.90
2023-02-11T08:06:43.194Z,1.00
2023-02-11T08:08:45.021Z,1.00
2023-02-11T08:10:46.691Z,1.00
2023-02-11T08:12:48.474Z,1.10
2023-02-11T08:14:50.182Z,1.00
2023-02-11T08:16:51.961Z,0.90
2023-02-11T08:18:55.543Z,1.00
2023-02-11T08:20:57.421Z,1.10
2023-02-11T08:22:59.180Z,1.20
2023-02-11T08:25:01.566Z,1.10
2023-02-11T08:27:03.245Z,1.30
2023-02-11T08:29:12.395Z,1.30
2023-02-11T08:31:19.730Z,1.40
2023-02-11T08:33:21.482Z,1.50
2023-02-11T08:35:23.177Z,1.40
2023-02-11T08:37:24.837Z,1.40
2023-02-11T08:39:26.498Z,1.40
2023-02-11T08:41:28.118Z,1.50
2023-02-11T08:43:29.820Z,1.50
2023-02-11T08:45:32.344Z,1.50
2023-02-11T08:47:34.083Z,1.50
2023-02-11T08:49:36.303Z,1.40
2023-02-11T08:51:37.963Z,1.50
2023-02-11T08:53:39.731Z,1.50
2023-02-11T08:55:47.813Z,1.50
2023-02-11T08:57:49.562Z,1.50
2023-02-11T08:59:51.174Z,1.50
2023-02-11T09:01:52.942Z,1.50
2023-02-11T09:03:54.704Z,1.60
2023-02-11T09:05:57.051Z,1.60
2023-02-11T09:07:58.737Z,1.60
2023-02-11T09:10:00.367Z,1.70
2023-02-11T09:12:02.003Z,1.70
2023-02-11T09:14:04.658Z,1.80
2023-02-11T09:16:06.539Z,1.90
2023-02-11T09:18:08.136Z,2.00
2023-02-11T09:20:10.888Z,2.10
2023-02-11T09:22:12.710Z,2.20
2023-02-11T09:24:14.966Z,2.20
2023-02-11T09:26:16.591Z,2.40
2023-02-11T09:28:18.286Z,2.30
2023-02-11T09:30:21.055Z,2.30
2023-02-11T09:32:22.740Z,2.50
2023-02-11T09:34:24.467Z,2.70
2023-02-11T09:36:28.759Z,2.80
2023-02-11T09:38:30.444Z,3.00
2023-02-11T09:40:32.135Z,3.10
2023-02-11T09:42:48.208Z,3.30
2023-02-11T09:44:50.066Z,3.40
2023-02-11T09:46:56.014Z,3.50
2023-02-11T09:48:57.995Z,3.50
2023-02-11T09:51:02.512Z,3.20
2023-02-11T09:53:24.411Z,3.20
2023-02-11T09:55:55.895Z,3.30
2023-02-11T09:57:58.089Z,3.40
2023-02-11T10:00:00.604Z,3.70
2023-02-11T10:02:04.366Z,3.80
2023-02-11T10:04:21.130Z,3.90
2023-02-11T10:06:22.827Z,4.00
2023-02-11T10:08:24.465Z,4.20
2023-02-11T10:10:32.298Z,4.30
2023-02-11T10:12:40.287Z,4.20
2023-02-11T10:14:52.946Z,4.40
2023-02-11T10:17:30.227Z,4.50
2023-02-11T10:19:49.844Z,4.50
2023-02-11T10:21:51.606Z,4.70
2023-02-11T10:23:55.872Z,4.90
2023-02-11T10:25:58.949Z,5.10
2023-02-11T10:28:01.766Z,5.10
2023-02-11T10:30:07.917Z,5.20
2023-02-11T10:32:24.896Z,5.50
2023-02-11T10:34:26.575Z,5.70
2023-02-11T10:36:30.140Z,5.70
2023-02-11T10:38:33.874Z,5.90
2023-02-11T10:40:35.545Z,6.00
2023-02-11T10:42:37.315Z,6.20
2023-02-11T10:44:41.774Z,6.30
2023-02-11T10:46:43.522Z,6.30
2023-02-11T10:48:46.691Z,6.30
2023-02-11T10:50:48.760Z,6.20
2023-02-11T10:52:50.928Z,6.20
2023-02-11T10:55:00.500Z,6.60
2023-02-11T10:57:02.140Z,6.80
2023-02-11T10:59:22.459Z,6.50
2023-02-11T11:01:25.148Z,6.90
2023-02-11T11:03:28.834Z,7.10
2023-02-11T11:05:35.412Z,7.30
2023-02-11T11:07:37.127Z,7.20
2023-02-11T11:09:47.119Z,7.40
2023-02-11T11:11:53.004Z,7.50
2023-02-11T11:13:58.266Z,7.80
2023-02-11T11:16:07.338Z,8.00
2023-02-11T11:18:20.849Z,8.20
2023-02-11T11:20:33.558Z,7.90
2023-02-11T11:22:36.334Z,8.30
2023-02-11T11:24:44.599Z,8.60
2023-02-11T11:26:48.108Z,8.70
2023-02-11T11:28:49.720Z,8.90
2023-02-11T11:30:53.068Z,9.20
2023-02-11T11:32:55.089Z,9.10
2023-02-11T11:35:00.162Z,8.80
2023-02-11T11:37:11.059Z,9.00
2023-02-11T11:39:19.449Z,9.40
2023-02-11T11:41:36.401Z,8.70
2023-02-11T11:43:38.502Z,9.30
2023-02-11T11:45:50.181Z,9.80
2023-02-11T11:47:54.562Z,9.60
2023-02-11T11:50:12.025Z,9.20
2023-02-11T11:52:19.905Z,9.40
2023-02-11T11:54:21.877Z,10.10
2023-02-11T11:56:29.227Z,10.40
2023-02-11T11:58:32.185Z,10.70
2023-02-11T12:01:02.013Z,10.30
2023-02-11T12:03:06.646Z,9.90
2023-02-11T12:05:22.507Z,10.00
2023-02-11T12:07:36.762Z,10.50
2023-02-11T12:09:38.469Z,11.30
2023-02-11T12:11:55.170Z,11.40
2023-02-11T12:14:19.411Z,11.40
2023-02-11T12:16:27.190Z,11.40
2023-02-11T12:18:38.554Z,11.40
2023-02-11T12:20:40.475Z,11.40
2023-02-11T12:23:09.422Z,11.80
2023-02-11T12:25:26.607Z,12.00
2023-02-11T12:27:34.408Z,12.10
2023-02-11T12:29:36.058Z,11.80
2023-02-11T12:32:08.063Z,12.00
2023-02-11T12:34:36.275Z,11.70
2023-02-11T12:36:37.886Z,10.50
2023-02-11T12:38:42.691Z,10.70
2023-02-11T12:40:51.259Z,11.00
2023-02-11T12:43:11.919Z,10.90
2023-02-11T12:45:20.502Z,10.20
2023-02-11T12:47:27.980Z,9.90
2023-02-11T12:49:40.695Z,9.80
2023-02-11T12:51:42.679Z,10.10
2023-02-11T12:53:58.665Z,10.40
2023-02-11T12:56:05.756Z,10.50
2023-02-11T12:58:12.639Z,10.00
2023-02-11T13:00:25.399Z,10.40
2023-02-11T13:02:29.851Z,10.50
2023-02-11T13:04:31.796Z,10.10
2023-02-11T13:06:36.122Z,10.40
2023-02-11T13:08:37.869Z,10.50
2023-02-11T13:10:45.956Z,10.40
2023-02-11T13:13:08.316Z,10.60
2023-02-11T13:15:12.967Z,10.50
2023-02-11T13:17:17.720Z,10.50
2023-02-11T13:19:22.173Z,10.50
2023-02-11T13:21:23.866Z,10.30
2023-02-11T13:23:39.977Z,10.40
2023-02-11T13:25:41.643Z,10.50
2023-02-11T13:27:43.267Z,10.70
2023-02-11T13:29:45.142Z,10.70
2023-02-11T13:31:57.087Z,10.00
2023-02-11T13:33:58.930Z,10.10
2023-02-11T13:36:02.107Z,10.60
2023-02-11T13:38:16.679Z,10.60
2023-02-11T13:40:22.878Z,11.20
2023-02-11T13:42:24.787Z,11.80
2023-02-11T13:44:27.563Z,11.50
2023-02-11T13:46:30.290Z,11.40
2023-02-11T13:48:35.131Z,12.20
2023-02-11T13:50:39.571Z,12.00
2023-02-11T13:52:42.746Z,12.00
2023-02-11T13:54:47.335Z,11.90
2023-02-11T13:57:08.935Z,11.70
2023-02-11T13:59:25.630Z,11.50
2023-02-11T14:02:22.786Z,10.40
2023-02-11T14:04:44.166Z,10.30
2023-02-11T14:07:26.018Z,10.60
2023-02-11T14:09:30.359Z,11.60
2023-02-11T14:11:41.718Z,12.40
2023-02-11T14:13:49.314Z,12.50
2023-02-11T14:16:09.393Z,12.20
2023-02-11T14:18:29.986Z,12.80
2023-02-11T14:20:36.444Z,12.30
2023-02-11T14:22:44.563Z,13.10
2023-02-11T14:25:12.699Z,13.70
2023-02-11T14:27:14.292Z,13.80
2023-02-11T14:29:30.997Z,13.90
2023-02-11T14:31:41.896Z,13.50
2023-02-11T14:33:49.523Z,13.60
2023-02-11T14:36:10.187Z,12.30
2023-02-11T14:38:14.806Z,12.70
2023-02-11T14:40:34.103Z,13.10
2023-02-11T14:42:37.234Z,12.00
2023-02-11T14:44:39.041Z,11.60
2023-02-11T14:46:44.046Z,11.80
2023-02-11T14:48:47.129Z,11.90
2023-02-11T14:50:53.675Z,12.10
2023-02-11T14:52:55.951Z,12.00
2023-02-11T15:59:47.280Z,9.30
2023-02-11T16:01:49.445Z,9.20
2023-02-11T16:03:51.283Z,9.10
2023-02-11T16:05:53.062Z,9.10
2023-02-11T16:07:55.082Z,8.90
2023-02-11T16:09:57.735Z,8.90
2023-02-11T16:12:01.549Z,8.80
2023-02-11T16:14:20.493Z,8.60
2023-02-11T16:16:24.844Z,8.50
2023-02-11T16:18:38.608Z,8.40
2023-02-11T16:20:40.924Z,8.40
2023-02-11T16:22:45.271Z,8.40
2023-02-11T16:24:48.598Z,8.20
2023-02-11T16:26:52.542Z,8.10
2023-02-11T16:29:02.121Z,8.10
2023-02-11T16:31:04.229Z,8.00
2023-02-11T16:33:06.342Z,8.00
2023-02-11T16:35:10.915Z,8.00
2023-02-11T16:37:12.799Z,8.00
2023-02-11T16:39:17.666Z,8.00
2023-02-11T16:41:20.406Z,7.90
2023-02-11T16:43:22.199Z,7.80
2023-02-11T16:45:23.980Z,7.80
2023-02-11T16:47:27.597Z,7.80
2023-02-11T16:49:41.300Z,7.70
2023-02-11T16:51:43.202Z,7.70
2023-02-11T16:53:44.824Z,7.70
2023-02-11T16:55:46.661Z,7.70
2023-02-11T16:57:48.447Z,7.70
2023-02-11T16:59:50.257Z,7.60
2023-02-11T17:01:53.100Z,7.60
2023-02-11T17:03:54.863Z,7.60
2023-02-11T17:05:56.654Z,7.60
2023-02-11T17:07:58.780Z,7.50
2023-02-11T17:10:03.774Z,7.50
2023-02-11T17:12:05.705Z,7.40
2023-02-11T17:14:07.517Z,7.40
2023-02-11T17:16:20.237Z,7.40
2023-02-11T17:18:29.309Z,7.40
2023-02-11T17:20:31.638Z,7.50
2023-02-11T17:22:43.518Z,7.40
2023-02-11T17:25:19.271Z,7.40
2023-02-11T17:30:51.743Z,7.30
2023-02-11T17:32:57.562Z,7.20
2023-02-11T17:35:02.574Z,7.20
2023-02-11T17:39:39.491Z,7.10
2023-02-11T17:42:41.853Z,7.00
2023-02-11T17:45:00.654Z,7.00
2023-02-11T17:47:02.457Z,6.90
2023-02-11T17:49:04.336Z,6.90
2023-02-11T17:53:28.012Z,6.80
2023-02-11T17:55:34.458Z,6.80
2023-02-11T17:57:39.674Z,6.70
2023-02-11T17:59:51.724Z,6.70
2023-02-11T18:04:17.452Z,6.70
2023-02-11T18:06:25.581Z,6.70
2023-02-11T18:11:25.648Z,6.60
2023-02-11T18:13:35.083Z,6.60
2023-02-11T18:15:37.220Z,6.60
2023-02-11T18:17:42.014Z,6.60
2023-02-11T18:20:09.056Z,6.60
2023-02-11T18:22:25.747Z,6.60
2023-02-11T18:24:27.652Z,6.60
2023-02-11T18:26:29.999Z,6.60
2023-02-11T18:29:12.179Z,6.60
2023-02-11T18:31:17.139Z,6.60
2023-02-11T18:33:19.580Z,6.50
2023-02-11T18:35:27.294Z,6.50
2023-02-11T18:37:29.307Z,6.50
2023-02-11T18:39:31.190Z,6.50
2023-02-11T18:41:48.774Z,6.50
2023-02-11T18:43:52.887Z,6.40
2023-02-11T18:46:47.038Z,6.40
2023-02-11T18:52:16.475Z,6.40
2023-02-11T18:56:48.125Z,6.40
2023-02-11T18:59:03.026Z,6.30
2023-02-11T19:01:21.166Z,6.30
2023-02-11T19:03:26.969Z,6.40
2023-02-11T19:08:59.721Z,6.30
2023-02-11T19:14:28.308Z,6.40
2023-02-11T19:17:14.875Z,6.30
2023-02-11T19:19:41.330Z,6.30
2023-02-11T19:21:56.602Z,6.30
2023-02-11T19:23:58.702Z,6.30
2023-02-11T19:26:09.344Z,6.20
2023-02-11T19:28:17.382Z,6.20
2023-02-11T19:30:47.574Z,6.20
2023-02-11T19:35:39.826Z,6.10
2023-02-11T19:40:40.117Z,6.00
2023-02-11T19:42:43.288Z,5.90
2023-02-11T19:44:47.441Z,5.90
2023-02-11T19:46:55.732Z,5.90
2023-02-11T19:49:05.620Z,5.90
2023-02-11T19:51:15.734Z,6.00
2023-02-11T19:53:20.063Z,6.00
2023-02-11T19:55:22.200Z,6.00
2023-02-11T19:57:23.960Z,5.90
2023-02-11T19:59:26.827Z,5.90
2023-02-11T20:01:28.652Z,5.90
2023-02-11T20:03:30.602Z,5.90
2023-02-11T20:05:32.911Z,5.90
2023-02-11T20:07:34.855Z,5.80
2023-02-11T20:09:36.792Z,5.80
2023-02-11T20:11:46.698Z,5.90
2023-02-11T20:13:53.053Z,5.90
2023-02-11T20:15:55.988Z,5.80
2023-02-11T20:18:14.798Z,5.80
2023-02-11T20:20:29.192Z,5.80
2023-02-11T20:22:58.810Z,5.90
2023-02-11T20:43:11.764Z,5.70
2023-02-11T21:06:44.035Z,5.50
2023-02-11T21:09:32.218Z,5.50
2023-02-11T21:21:23.882Z,5.50
2023-02-11T21:34:03.916Z,5.50
2023-02-11T21:56:58.157Z,5.50
2023-02-11T21:59:02.722Z,5.60
2023-02-11T22:01:20.793Z,5.70
2023-02-11T22:03:22.925Z,5.80
2023-02-11T22:05:34.640Z,5.80
2023-02-11T22:07:39.652Z,5.60
2023-02-11T22:09:44.574Z,5.60
2023-02-11T22:11:57.909Z,5.60
2023-02-11T22:14:37.491Z,5.60
2023-02-11T22:16:46.061Z,5.60
2023-02-11T22:18:48.152Z,5.60
2023-02-11T22:24:01.428Z,5.70
2023-02-11T22:26:07.769Z,5.60
2023-02-11T22:28:09.670Z,5.60
2023-02-11T22:30:15.319Z,5.60
2023-02-11T22:32:54.749Z,5.60
2023-02-11T22:34:57.246Z,5.60
2023-02-11T22:36:59.374Z,5.60
2023-02-11T22:39:05.846Z,5.60
2023-02-11T22:41:09.195Z,5.60
2023-02-11T22:43:10.999Z,5.70
2023-02-11T22:45:34.571Z,5.70
2023-02-11T22:47:40.818Z,5.70
2023-02-11T22:49:54.247Z,5.70
2023-02-11T22:52:05.789Z,5.70
2023-02-11T22:56:53.866Z,5.70
2023-02-11T22:58:59.584Z,5.70
2023-02-11T23:01:02.862Z,5.60
2023-02-11T23:03:05.762Z,5.60
2023-02-11T23:05:07.614Z,5.50
2023-02-11T23:07:09.896Z,5.60
2023-02-11T23:09:14.787Z,5.50
2023-02-11T23:11:18.218Z,5.50
2023-02-11T23:13:20.096Z,5.50
2023-02-11T23:15:21.852Z,5.50
2023-02-11T23:17:24.627Z,5.50
2023-02-11T23:19:26.465Z,5.50
2023-02-11T23:21:29.667Z,5.40
2023-02-11T23:23:31.558Z,5.50
2023-02-11T23:25:35.927Z,5.40
2023-02-11T23:27:48.213Z,5.40
2023-02-11T23:29:50.801Z,5.40
2023-02-11T23:32:00.434Z,5.50
2023-02-11T23:34:02.863Z,5.50
2023-02-11T23:36:06.206Z,5.60
2023-02-11T23:38:11.199Z,5.60
2023-02-11T23:40:16.145Z,5.50
2023-02-11T23:42:22.020Z,5.40
2023-02-11T23:44:26.792Z,5.40
2023-02-11T23:46:28.930Z,5.50
2023-02-11T23:48:33.280Z,5.50
2023-02-11T23:50:42.153Z,5.50
2023-02-11T23:52:44.003Z,5.50
2023-02-11T23:54:52.233Z,5.50
2023-02-11T23:57:14.149Z,5.50
